<?xml version="1.0" encoding="UTF-8" standalone="no" ?>
<gpx xmlns="http://www.topografix.com/GPX/1/1" xmlns:xsi="http://www.w3.org/2001/XMLSchema-instance" xsi:schemaLocation="http://www.topografix.com/GPX/1/1 http://www.topografix.com/GPX/1/1/gpx.xsd" version="1.1" creator="VisuGPX - https://www.visugpx.com">
  <metadata>
    <name>Redon_Chateaulin</name>
    <desc><![CDATA[Randonnée cyclotouriste de Redon à Châteaulin par le chemin de halage du canal de Nantes à Brest avec quelques échappées vers Rostrenen, Carhaix et Pleyben.]]></desc>
  </metadata>
  <trk>
    <name><![CDATA[ACTIVE LOG 017]]></name>
    <trkseg>
      <trkpt lat="48.19314" lon="-3.98172">
        <ele>-8.5146484375</ele>
        <time>2012-04-20T12:14:50Z</time>
      </trkpt>
      <trkpt lat="48.19322" lon="-3.98183">
        <ele>20.324951171875</ele>
        <time>2012-04-20T12:15:19Z</time>
      </trkpt>
      <trkpt lat="48.19317" lon="-3.98185">
        <ele>19.844360351562</ele>
        <time>2012-04-20T12:15:50Z</time>
      </trkpt>
      <trkpt lat="48.19319" lon="-3.98183">
        <ele>19.844360351562</ele>
        <time>2012-04-20T12:16:01Z</time>
      </trkpt>
      <trkpt lat="48.19318" lon="-3.98186">
        <ele>18.883056640625</ele>
        <time>2012-04-20T12:16:14Z</time>
      </trkpt>
      <trkpt lat="48.19318" lon="-3.98187">
        <ele>18.883056640625</ele>
        <time>2012-04-20T12:16:20Z</time>
      </trkpt>
      <trkpt lat="48.193" lon="-3.98231">
        <ele>18.40234375</ele>
        <time>2012-04-20T12:16:35Z</time>
      </trkpt>
      <trkpt lat="48.19245" lon="-3.98312">
        <ele>17.921752929688</ele>
        <time>2012-04-20T12:16:58Z</time>
      </trkpt>
      <trkpt lat="48.19236" lon="-3.98337">
        <ele>17.921752929688</ele>
        <time>2012-04-20T12:17:05Z</time>
      </trkpt>
      <trkpt lat="48.19264" lon="-3.98345">
        <ele>18.883056640625</ele>
        <time>2012-04-20T12:17:18Z</time>
      </trkpt>
      <trkpt lat="48.1932" lon="-3.98293">
        <ele>18.883056640625</ele>
        <time>2012-04-20T12:17:37Z</time>
      </trkpt>
      <trkpt lat="48.19388" lon="-3.98229">
        <ele>18.883056640625</ele>
        <time>2012-04-20T12:18:01Z</time>
      </trkpt>
      <trkpt lat="48.19467" lon="-3.98157">
        <ele>20.324951171875</ele>
        <time>2012-04-20T12:18:28Z</time>
      </trkpt>
      <trkpt lat="48.19568" lon="-3.98066">
        <ele>22.24755859375</ele>
        <time>2012-04-20T12:19:01Z</time>
      </trkpt>
      <trkpt lat="48.19653" lon="-3.97987">
        <ele>23.689575195312</ele>
        <time>2012-04-20T12:19:28Z</time>
      </trkpt>
      <trkpt lat="48.19719" lon="-3.97929">
        <ele>25.131713867188</ele>
        <time>2012-04-20T12:19:53Z</time>
      </trkpt>
      <trkpt lat="48.19787" lon="-3.9788">
        <ele>29.45751953125</ele>
        <time>2012-04-20T12:20:22Z</time>
      </trkpt>
      <trkpt lat="48.19848" lon="-3.97871">
        <ele>31.860717773438</ele>
        <time>2012-04-20T12:20:45Z</time>
      </trkpt>
      <trkpt lat="48.19944" lon="-3.97891">
        <ele>35.225463867188</ele>
        <time>2012-04-20T12:21:19Z</time>
      </trkpt>
      <trkpt lat="48.20021" lon="-3.97911">
        <ele>38.109375</ele>
        <time>2012-04-20T12:21:47Z</time>
      </trkpt>
      <trkpt lat="48.20095" lon="-3.97929">
        <ele>40.993408203125</ele>
        <time>2012-04-20T12:22:14Z</time>
      </trkpt>
      <trkpt lat="48.20169" lon="-3.97952">
        <ele>44.838623046875</ele>
        <time>2012-04-20T12:22:41Z</time>
      </trkpt>
      <trkpt lat="48.20228" lon="-3.97994">
        <ele>48.683959960938</ele>
        <time>2012-04-20T12:23:03Z</time>
      </trkpt>
      <trkpt lat="48.20278" lon="-3.98058">
        <ele>50.606567382812</ele>
        <time>2012-04-20T12:23:25Z</time>
      </trkpt>
      <trkpt lat="48.20348" lon="-3.98162">
        <ele>53.009765625</ele>
        <time>2012-04-20T12:23:57Z</time>
      </trkpt>
      <trkpt lat="48.20424" lon="-3.98206">
        <ele>55.4130859375</ele>
        <time>2012-04-20T12:24:22Z</time>
      </trkpt>
      <trkpt lat="48.20498" lon="-3.98236">
        <ele>56.37451171875</ele>
        <time>2012-04-20T12:24:46Z</time>
      </trkpt>
      <trkpt lat="48.20575" lon="-3.98264">
        <ele>57.816528320312</ele>
        <time>2012-04-20T12:25:08Z</time>
      </trkpt>
      <trkpt lat="48.2066" lon="-3.98265">
        <ele>57.816528320312</ele>
        <time>2012-04-20T12:25:30Z</time>
      </trkpt>
      <trkpt lat="48.20726" lon="-3.98236">
        <ele>59.739135742188</ele>
        <time>2012-04-20T12:25:52Z</time>
      </trkpt>
      <trkpt lat="48.20787" lon="-3.98175">
        <ele>62.142333984375</ele>
        <time>2012-04-20T12:26:16Z</time>
      </trkpt>
      <trkpt lat="48.20841" lon="-3.98093">
        <ele>64.545654296875</ele>
        <time>2012-04-20T12:26:43Z</time>
      </trkpt>
      <trkpt lat="48.20899" lon="-3.98016">
        <ele>66.948974609375</ele>
        <time>2012-04-20T12:27:11Z</time>
      </trkpt>
      <trkpt lat="48.20967" lon="-3.97954">
        <ele>69.352294921875</ele>
        <time>2012-04-20T12:27:39Z</time>
      </trkpt>
      <trkpt lat="48.21032" lon="-3.97919">
        <ele>71.755493164062</ele>
        <time>2012-04-20T12:28:03Z</time>
      </trkpt>
      <trkpt lat="48.21103" lon="-3.97904">
        <ele>74.158813476562</ele>
        <time>2012-04-20T12:28:29Z</time>
      </trkpt>
      <trkpt lat="48.21208" lon="-3.97916">
        <ele>77.5234375</ele>
        <time>2012-04-20T12:29:03Z</time>
      </trkpt>
      <trkpt lat="48.21299" lon="-3.97959">
        <ele>78.965454101562</ele>
        <time>2012-04-20T12:29:30Z</time>
      </trkpt>
      <trkpt lat="48.21357" lon="-3.97984">
        <ele>81.368774414062</ele>
        <time>2012-04-20T12:29:48Z</time>
      </trkpt>
      <trkpt lat="48.21414" lon="-3.97993">
        <ele>82.330078125</ele>
        <time>2012-04-20T12:30:06Z</time>
      </trkpt>
      <trkpt lat="48.21487" lon="-3.97986">
        <ele>84.7333984375</ele>
        <time>2012-04-20T12:30:29Z</time>
      </trkpt>
      <trkpt lat="48.21587" lon="-3.97973">
        <ele>83.77197265625</ele>
        <time>2012-04-20T12:30:58Z</time>
      </trkpt>
      <trkpt lat="48.21693" lon="-3.97954">
        <ele>83.77197265625</ele>
        <time>2012-04-20T12:31:29Z</time>
      </trkpt>
      <trkpt lat="48.21747" lon="-3.97905">
        <ele>84.7333984375</ele>
        <time>2012-04-20T12:31:50Z</time>
      </trkpt>
      <trkpt lat="48.21761" lon="-3.97847">
        <ele>85.213989257812</ele>
        <time>2012-04-20T12:32:02Z</time>
      </trkpt>
      <trkpt lat="48.21796" lon="-3.97841">
        <ele>87.136596679688</ele>
        <time>2012-04-20T12:32:14Z</time>
      </trkpt>
      <trkpt lat="48.21837" lon="-3.97824">
        <ele>88.098022460938</ele>
        <time>2012-04-20T12:32:28Z</time>
      </trkpt>
      <trkpt lat="48.21896" lon="-3.97738">
        <ele>88.578735351562</ele>
        <time>2012-04-20T12:32:54Z</time>
      </trkpt>
      <trkpt lat="48.21897" lon="-3.97729">
        <ele>89.059326171875</ele>
        <time>2012-04-20T12:32:55Z</time>
      </trkpt>
      <trkpt lat="48.21928" lon="-3.97689">
        <ele>90.020629882812</ele>
        <time>2012-04-20T12:33:06Z</time>
      </trkpt>
      <trkpt lat="48.21967" lon="-3.97676">
        <ele>91.462524414062</ele>
        <time>2012-04-20T12:33:20Z</time>
      </trkpt>
      <trkpt lat="48.21998" lon="-3.97628">
        <ele>93.385131835938</ele>
        <time>2012-04-20T12:33:38Z</time>
      </trkpt>
      <trkpt lat="48.22035" lon="-3.97531">
        <ele>97.23046875</ele>
        <time>2012-04-20T12:34:03Z</time>
      </trkpt>
      <trkpt lat="48.22071" lon="-3.97452">
        <ele>100.59509277344</ele>
        <time>2012-04-20T12:34:32Z</time>
      </trkpt>
      <trkpt lat="48.22134" lon="-3.9736">
        <ele>103.47900390625</ele>
        <time>2012-04-20T12:35:00Z</time>
      </trkpt>
      <trkpt lat="48.22212" lon="-3.97258">
        <ele>100.59509277344</ele>
        <time>2012-04-20T12:35:24Z</time>
      </trkpt>
      <trkpt lat="48.22301" lon="-3.97168">
        <ele>98.672485351562</ele>
        <time>2012-04-20T12:35:41Z</time>
      </trkpt>
      <trkpt lat="48.22377" lon="-3.97129">
        <ele>101.55639648438</ele>
        <time>2012-04-20T12:35:59Z</time>
      </trkpt>
      <trkpt lat="48.22428" lon="-3.97105">
        <ele>103.95971679688</ele>
        <time>2012-04-20T12:36:17Z</time>
      </trkpt>
      <trkpt lat="48.22502" lon="-3.97069">
        <ele>110.20825195312</ele>
        <time>2012-04-20T12:36:44Z</time>
      </trkpt>
      <trkpt lat="48.22572" lon="-3.97015">
        <ele>111.16955566406</ele>
        <time>2012-04-20T12:37:10Z</time>
      </trkpt>
      <trkpt lat="48.22637" lon="-3.96968">
        <ele>112.61157226562</ele>
        <time>2012-04-20T12:37:36Z</time>
      </trkpt>
      <trkpt lat="48.22655" lon="-3.96956">
        <ele>113.09228515625</ele>
        <time>2012-04-20T12:37:51Z</time>
      </trkpt>
      <trkpt lat="48.22655" lon="-3.96956">
        <ele>113.09228515625</ele>
        <time>2012-04-20T12:38:44Z</time>
      </trkpt>
      <trkpt lat="48.22655" lon="-3.96956">
        <ele>113.09228515625</ele>
        <time>2012-04-20T12:39:10Z</time>
      </trkpt>
    </trkseg>
  </trk>
</gpx>